MAPA DE AEROPUERTO

INFORMACIÓN METAR y TAF

METAR FOR LEZL
ADDS - METARS form results

(1703 UTC 27 February 2020)
Data provider http://aviationweather.gov/metar/data/
 
METAR text: LEZL 271630Z 03005KT 330V070 CAVOK 23/06 Q1022 NOSIG
Conditions at: LEZL (SEVILLA (CIV/MIL, ES) observed 1630 UTC 27 February 2020
Temperature: 23.0°C (73°F)
Dewpoint: 6.0°C (43°F) [RH = 33%]
Pressure (altimeter): 30.18 inches Hg (1022.0 mb)
Winds: from the NNE (30 degrees) at 6 MPH (5 knots; 2.6 m/s)
Visibility: 6 or more miles (10+ km)
Ceiling: ceiling and visibility are OK
Clouds: unknown
Weather: no significant weather observed at this time

Forecast for: LEZL (SEVILLA (CIV/MIL, ES)
Text: TAF LEZL 271400Z 2715/2815 05005KT CAVOK TX23/2815Z TN08/2807Z
Forecast period: 1500 UTC 27 February 2020 to 1200 UTC 28 February 2020
Forecast type: FROM: standard forecast or significant change
Winds: from the NE (50 degrees) at 6 MPH (5 knots; 2.6 m/s)
Visibility: 6 or more miles 10+ km)
Ceiling: unknown
Clouds: missing
Weather: no significant weather forecast for this period
Text: BECMG 2812/2814 22010KT
Forecast period: 1200 to 1500 UTC 28 February 2020
Forecast type: BECOMING: Conditions expected to become as follows by 1400 UTC 28 February 2020
Winds: from the SW (220 degrees) at 12 MPH (10 knots; 5.1 m/s)
Visibility: 6 or more miles 10+ km)
Ceiling: unknown
Clouds: missing
Weather: no significant weather forecast for this period